CheckWX is a tool to help pilots better visualize weather data.  It is not intended as a substitute for an official pre-flight weather briefing.

18:36:31 UTC

EFLP METAR
Lappeenranta Airport
Lappeenranta, Finland
Current

17 mins ago

EFLP 171820Z AUTO 32007KT 270V010 CAVOK M02/M11 Q1016
Observed
Feb-17 @ 18:20 UTC
Wind
  • 320° at 7 KTS
Visibility
10,000+ meters
Flight Rules
VFR
Cloud Levels
  • Clear skies
Temperature
-2°C / 28°F
Dewpoint
-11°C / 12°F
Humidity
51%
Altimeter
30" Hg
Pressure
1015.92 hPa
Previous

47 mins ago

EFLP 171750Z AUTO 32008KT 280V360 CAVOK M02/M10 Q1016
Observed
Feb-17 @ 17:50 UTC
Wind
  • 320° at 8 KTS
Visibility
10,000+ meters
Flight Rules
VFR
Cloud Levels
  • Clear skies
Temperature
-2°C / 28°F
Dewpoint
-10°C / 14°F
Humidity
55%
Altimeter
30" Hg
Pressure
1015.92 hPa
Previous

1 hour ago

EFLP 171720Z AUTO 31009KT 270V350 CAVOK M01/M10 Q1015
Observed
Feb-17 @ 17:20 UTC
Wind
  • 310° at 9 KTS
Visibility
10,000+ meters
Flight Rules
VFR
Cloud Levels
  • Clear skies
Temperature
-1°C / 30°F
Dewpoint
-10°C / 14°F
Humidity
51%
Altimeter
29.97" Hg
Pressure
1014.92 hPa